sensor_id;sensor_type;location;lat;lon;timestamp;P1;durP1;ratioP1;P2;durP2;ratioP2
43682;SDS011;29285;52.128;21.060;2024-02-28T00:00:37;31.90;;;21.40;;
43682;SDS011;29285;52.128;21.060;2024-02-28T00:05:58;32.50;;;19.20;;
43682;SDS011;29285;52.128;21.060;2024-02-28T00:10:59;32.00;;;20.70;;
43682;SDS011;29285;52.128;21.060;2024-02-28T00:16:00;26.80;;;19.40;;
43682;SDS011;29285;52.128;21.060;2024-02-28T00:21:01;29.40;;;20.90;;
43682;SDS011;29285;52.128;21.060;2024-02-28T00:26:02;27.70;;;19.70;;
43682;SDS011;29285;52.128;21.060;2024-02-28T00:31:04;29.30;;;20.50;;
43682;SDS011;29285;52.128;21.060;2024-02-28T00:36:05;32.50;;;20.50;;
43682;SDS011;29285;52.128;21.060;2024-02-28T00:41:06;32.40;;;21.50;;
43682;SDS011;29285;52.128;21.060;2024-02-28T00:46:07;35.70;;;22.10;;
43682;SDS011;29285;52.128;21.060;2024-02-28T00:51:12;26.90;;;20.00;;
43682;SDS011;29285;52.128;21.060;2024-02-28T00:56:14;31.40;;;22.00;;
43682;SDS011;29285;52.128;21.060;2024-02-28T01:01:15;29.90;;;21.00;;
43682;SDS011;29285;52.128;21.060;2024-02-28T01:06:16;34.00;;;19.90;;
43682;SDS011;29285;52.128;21.060;2024-02-28T01:11:17;28.00;;;20.40;;
43682;SDS011;29285;52.128;21.060;2024-02-28T01:16:19;31.90;;;20.90;;
43682;SDS011;29285;52.128;21.060;2024-02-28T01:21:20;33.60;;;20.70;;
43682;SDS011;29285;52.128;21.060;2024-02-28T01:26:21;31.10;;;21.40;;
43682;SDS011;29285;52.128;21.060;2024-02-28T01:31:23;35.30;;;25.30;;
43682;SDS011;29285;52.128;21.060;2024-02-28T01:36:25;34.40;;;23.90;;
43682;SDS011;29285;52.128;21.060;2024-02-28T01:41:27;33.60;;;22.70;;
43682;SDS011;29285;52.128;21.060;2024-02-28T01:46:28;37.70;;;23.80;;
43682;SDS011;29285;52.128;21.060;2024-02-28T01:51:29;35.50;;;24.80;;
43682;SDS011;29285;52.128;21.060;2024-02-28T01:56:31;36.30;;;24.70;;
43682;SDS011;29285;52.128;21.060;2024-02-28T02:01:32;38.80;;;24.70;;
43682;SDS011;29285;52.128;21.060;2024-02-28T02:06:33;36.90;;;26.10;;
43682;SDS011;29285;52.128;21.060;2024-02-28T02:11:39;34.70;;;25.80;;
43682;SDS011;29285;52.128;21.060;2024-02-28T02:16:40;35.80;;;26.50;;
43682;SDS011;29285;52.128;21.060;2024-02-28T02:21:43;41.60;;;27.90;;
43682;SDS011;29285;52.128;21.060;2024-02-28T02:26:55;35.40;;;25.60;;
43682;SDS011;29285;52.128;21.060;2024-02-28T02:31:58;39.40;;;26.40;;
43682;SDS011;29285;52.128;21.060;2024-02-28T02:36:59;43.00;;;29.80;;
43682;SDS011;29285;52.128;21.060;2024-02-28T02:42:00;37.60;;;27.90;;
43682;SDS011;29285;52.128;21.060;2024-02-28T02:47:01;40.60;;;27.90;;
43682;SDS011;29285;52.128;21.060;2024-02-28T02:52:02;38.40;;;26.80;;
43682;SDS011;29285;52.128;21.060;2024-02-28T02:57:04;45.80;;;30.30;;
43682;SDS011;29285;52.128;21.060;2024-02-28T03:02:05;38.80;;;26.90;;
43682;SDS011;29285;52.128;21.060;2024-02-28T03:07:06;37.40;;;26.90;;
43682;SDS011;29285;52.128;21.060;2024-02-28T03:12:07;41.40;;;27.10;;
43682;SDS011;29285;52.128;21.060;2024-02-28T03:17:08;40.00;;;28.10;;
43682;SDS011;29285;52.128;21.060;2024-02-28T03:22:09;34.50;;;25.20;;
43682;SDS011;29285;52.128;21.060;2024-02-28T03:27:10;39.60;;;28.30;;
43682;SDS011;29285;52.128;21.060;2024-02-28T03:32:11;35.20;;;25.80;;
43682;SDS011;29285;52.128;21.060;2024-02-28T03:37:13;38.30;;;28.10;;
43682;SDS011;29285;52.128;21.060;2024-02-28T03:42:14;40.90;;;27.40;;
43682;SDS011;29285;52.128;21.060;2024-02-28T03:47:15;38.50;;;27.20;;
43682;SDS011;29285;52.128;21.060;2024-02-28T03:52:16;43.70;;;30.00;;
43682;SDS011;29285;52.128;21.060;2024-02-28T03:57:18;39.40;;;29.30;;
43682;SDS011;29285;52.128;21.060;2024-02-28T04:02:19;39.10;;;28.90;;
43682;SDS011;29285;52.128;21.060;2024-02-28T04:07:20;37.20;;;27.40;;
43682;SDS011;29285;52.128;21.060;2024-02-28T04:12:21;36.60;;;26.20;;
43682;SDS011;29285;52.128;21.060;2024-02-28T04:17:22;40.00;;;28.40;;
43682;SDS011;29285;52.128;21.060;2024-02-28T04:22:23;40.70;;;28.00;;
43682;SDS011;29285;52.128;21.060;2024-02-28T04:27:24;36.30;;;26.90;;
43682;SDS011;29285;52.128;21.060;2024-02-28T04:32:25;40.20;;;27.20;;
43682;SDS011;29285;52.128;21.060;2024-02-28T04:37:26;38.30;;;26.30;;
43682;SDS011;29285;52.128;21.060;2024-02-28T04:42:27;38.90;;;26.50;;
43682;SDS011;29285;52.128;21.060;2024-02-28T04:47:28;37.10;;;27.00;;
43682;SDS011;29285;52.128;21.060;2024-02-28T04:52:29;32.90;;;25.20;;
43682;SDS011;29285;52.128;21.060;2024-02-28T04:57:30;36.00;;;24.80;;
43682;SDS011;29285;52.128;21.060;2024-02-28T05:02:31;37.10;;;28.50;;
43682;SDS011;29285;52.128;21.060;2024-02-28T05:07:32;36.40;;;27.10;;
43682;SDS011;29285;52.128;21.060;2024-02-28T05:12:33;37.70;;;26.40;;
43682;SDS011;29285;52.128;21.060;2024-02-28T05:17:34;38.70;;;28.10;;
43682;SDS011;29285;52.128;21.060;2024-02-28T05:22:36;39.70;;;27.40;;
43682;SDS011;29285;52.128;21.060;2024-02-28T05:27:36;37.80;;;26.90;;
43682;SDS011;29285;52.128;21.060;2024-02-28T05:32:37;38.60;;;27.50;;
43682;SDS011;29285;52.128;21.060;2024-02-28T05:37:39;39.20;;;29.40;;
43682;SDS011;29285;52.128;21.060;2024-02-28T05:42:40;42.80;;;27.10;;
43682;SDS011;29285;52.128;21.060;2024-02-28T05:47:41;34.50;;;25.90;;
43682;SDS011;29285;52.128;21.060;2024-02-28T05:52:42;38.60;;;27.10;;
43682;SDS011;29285;52.128;21.060;2024-02-28T05:57:43;35.40;;;27.00;;
43682;SDS011;29285;52.128;21.060;2024-02-28T06:02:44;37.20;;;24.30;;
43682;SDS011;29285;52.128;21.060;2024-02-28T06:07:46;37.90;;;26.40;;
43682;SDS011;29285;52.128;21.060;2024-02-28T06:12:47;34.70;;;27.70;;
43682;SDS011;29285;52.128;21.060;2024-02-28T06:17:48;36.40;;;25.90;;
43682;SDS011;29285;52.128;21.060;2024-02-28T06:22:49;34.10;;;26.90;;
43682;SDS011;29285;52.128;21.060;2024-02-28T06:27:50;32.60;;;24.30;;
43682;SDS011;29285;52.128;21.060;2024-02-28T06:32:51;36.20;;;26.50;;
43682;SDS011;29285;52.128;21.060;2024-02-28T06:37:52;37.40;;;25.30;;
43682;SDS011;29285;52.128;21.060;2024-02-28T06:42:53;31.80;;;25.10;;
43682;SDS011;29285;52.128;21.060;2024-02-28T06:47:54;37.40;;;25.00;;
43682;SDS011;29285;52.128;21.060;2024-02-28T06:52:55;36.60;;;26.50;;
43682;SDS011;29285;52.128;21.060;2024-02-28T06:57:56;43.60;;;26.90;;
43682;SDS011;29285;52.128;21.060;2024-02-28T07:02:57;38.70;;;25.50;;
43682;SDS011;29285;52.128;21.060;2024-02-28T07:07:58;39.50;;;27.30;;
43682;SDS011;29285;52.128;21.060;2024-02-28T07:12:59;39.50;;;27.40;;
43682;SDS011;29285;52.128;21.060;2024-02-28T07:18:00;38.00;;;27.80;;
43682;SDS011;29285;52.128;21.060;2024-02-28T07:23:01;36.00;;;25.10;;
43682;SDS011;29285;52.128;21.060;2024-02-28T07:28:02;40.00;;;26.20;;
43682;SDS011;29285;52.128;21.060;2024-02-28T07:33:04;35.80;;;26.10;;
43682;SDS011;29285;52.128;21.060;2024-02-28T07:38:06;42.80;;;28.90;;
43682;SDS011;29285;52.128;21.060;2024-02-28T07:43:09;42.20;;;28.30;;
43682;SDS011;29285;52.128;21.060;2024-02-28T07:48:10;42.60;;;27.80;;
43682;SDS011;29285;52.128;21.060;2024-02-28T07:53:11;41.90;;;28.30;;
43682;SDS011;29285;52.128;21.060;2024-02-28T07:58:16;42.90;;;28.60;;
43682;SDS011;29285;52.128;21.060;2024-02-28T08:03:17;38.50;;;29.90;;
43682;SDS011;29285;52.128;21.060;2024-02-28T08:08:18;42.90;;;28.40;;
43682;SDS011;29285;52.128;21.060;2024-02-28T08:13:19;43.90;;;29.40;;
43682;SDS011;29285;52.128;21.060;2024-02-28T08:18:20;47.00;;;30.20;;
43682;SDS011;29285;52.128;21.060;2024-02-28T08:23:22;43.20;;;29.10;;
43682;SDS011;29285;52.128;21.060;2024-02-28T08:28:24;42.10;;;28.60;;
43682;SDS011;29285;52.128;21.060;2024-02-28T08:33:25;48.20;;;31.40;;
43682;SDS011;29285;52.128;21.060;2024-02-28T08:38:26;46.60;;;31.10;;
43682;SDS011;29285;52.128;21.060;2024-02-28T08:43:27;48.20;;;32.00;;
43682;SDS011;29285;52.128;21.060;2024-02-28T08:48:28;45.60;;;29.10;;
43682;SDS011;29285;52.128;21.060;2024-02-28T08:53:30;47.00;;;31.90;;
43682;SDS011;29285;52.128;21.060;2024-02-28T08:58:31;45.90;;;31.70;;
43682;SDS011;29285;52.128;21.060;2024-02-28T09:03:32;42.60;;;30.70;;
43682;SDS011;29285;52.128;21.060;2024-02-28T09:08:33;42.70;;;29.90;;
43682;SDS011;29285;52.128;21.060;2024-02-28T09:13:34;48.30;;;30.90;;
43682;SDS011;29285;52.128;21.060;2024-02-28T09:18:39;44.40;;;29.40;;
43682;SDS011;29285;52.128;21.060;2024-02-28T09:23:40;40.80;;;30.60;;
43682;SDS011;29285;52.128;21.060;2024-02-28T09:28:41;41.10;;;30.00;;
43682;SDS011;29285;52.128;21.060;2024-02-28T09:33:42;40.20;;;28.10;;
43682;SDS011;29285;52.128;21.060;2024-02-28T09:38:43;40.20;;;27.80;;
43682;SDS011;29285;52.128;21.060;2024-02-28T09:43:44;39.40;;;26.80;;
43682;SDS011;29285;52.128;21.060;2024-02-28T09:48:47;40.30;;;27.70;;
43682;SDS011;29285;52.128;21.060;2024-02-28T09:53:51;39.90;;;27.90;;
43682;SDS011;29285;52.128;21.060;2024-02-28T09:58:52;39.10;;;26.80;;
43682;SDS011;29285;52.128;21.060;2024-02-28T10:03:55;36.20;;;27.20;;
43682;SDS011;29285;52.128;21.060;2024-02-28T10:08:58;37.60;;;24.70;;
43682;SDS011;29285;52.128;21.060;2024-02-28T10:13:59;37.10;;;25.00;;
43682;SDS011;29285;52.128;21.060;2024-02-28T10:19:02;32.10;;;26.00;;
43682;SDS011;29285;52.128;21.060;2024-02-28T10:24:04;35.70;;;23.20;;
43682;SDS011;29285;52.128;21.060;2024-02-28T10:29:05;34.80;;;23.70;;
43682;SDS011;29285;52.128;21.060;2024-02-28T10:34:07;34.20;;;24.80;;
43682;SDS011;29285;52.128;21.060;2024-02-28T10:39:09;33.00;;;23.70;;
43682;SDS011;29285;52.128;21.060;2024-02-28T10:44:12;31.60;;;23.00;;
43682;SDS011;29285;52.128;21.060;2024-02-28T10:49:13;28.80;;;19.80;;
43682;SDS011;29285;52.128;21.060;2024-02-28T10:54:15;30.10;;;22.20;;
43682;SDS011;29285;52.128;21.060;2024-02-28T10:59:17;30.70;;;19.40;;
43682;SDS011;29285;52.128;21.060;2024-02-28T11:04:18;30.10;;;20.50;;
43682;SDS011;29285;52.128;21.060;2024-02-28T11:09:20;29.50;;;21.20;;
43682;SDS011;29285;52.128;21.060;2024-02-28T11:14:26;33.60;;;21.90;;
43682;SDS011;29285;52.128;21.060;2024-02-28T11:19:30;33.30;;;21.20;;
43682;SDS011;29285;52.128;21.060;2024-02-28T11:24:33;30.40;;;20.70;;
43682;SDS011;29285;52.128;21.060;2024-02-28T11:29:36;34.00;;;21.90;;
43682;SDS011;29285;52.128;21.060;2024-02-28T11:34:37;33.40;;;21.20;;
43682;SDS011;29285;52.128;21.060;2024-02-28T11:39:45;29.00;;;20.50;;
43682;SDS011;29285;52.128;21.060;2024-02-28T11:44:54;29.50;;;19.90;;
43682;SDS011;29285;52.128;21.060;2024-02-28T11:49:59;29.60;;;20.70;;
43682;SDS011;29285;52.128;21.060;2024-02-28T11:55:02;30.70;;;21.90;;
43682;SDS011;29285;52.128;21.060;2024-02-28T12:00:04;27.70;;;18.90;;
43682;SDS011;29285;52.128;21.060;2024-02-28T12:05:09;33.10;;;21.80;;
43682;SDS011;29285;52.128;21.060;2024-02-28T12:10:11;28.40;;;21.50;;
43682;SDS011;29285;52.128;21.060;2024-02-28T12:15:12;29.30;;;17.30;;
43682;SDS011;29285;52.128;21.060;2024-02-28T12:20:13;24.30;;;18.20;;
43682;SDS011;29285;52.128;21.060;2024-02-28T12:25:14;22.70;;;16.20;;
43682;SDS011;29285;52.128;21.060;2024-02-28T12:30:16;26.90;;;17.90;;
43682;SDS011;29285;52.128;21.060;2024-02-28T12:35:17;26.80;;;19.20;;
43682;SDS011;29285;52.128;21.060;2024-02-28T12:40:18;43.70;;;29.10;;
43682;SDS011;29285;52.128;21.060;2024-02-28T12:45:19;61.70;;;42.70;;
43682;SDS011;29285;52.128;21.060;2024-02-28T12:50:20;64.10;;;43.20;;
43682;SDS011;29285;52.128;21.060;2024-02-28T12:55:22;57.00;;;37.10;;
43682;SDS011;29285;52.128;21.060;2024-02-28T13:00:23;64.20;;;39.70;;
43682;SDS011;29285;52.128;21.060;2024-02-28T13:05:24;58.10;;;38.00;;
43682;SDS011;29285;52.128;21.060;2024-02-28T13:10:26;60.60;;;38.80;;
43682;SDS011;29285;52.128;21.060;2024-02-28T13:15:28;52.80;;;36.20;;
43682;SDS011;29285;52.128;21.060;2024-02-28T13:20:29;53.70;;;34.20;;
43682;SDS011;29285;52.128;21.060;2024-02-28T13:25:30;60.20;;;37.40;;
43682;SDS011;29285;52.128;21.060;2024-02-28T13:30:32;53.60;;;35.20;;
43682;SDS011;29285;52.128;21.060;2024-02-28T13:35:35;61.90;;;40.10;;
43682;SDS011;29285;52.128;21.060;2024-02-28T13:40:38;53.30;;;35.30;;
43682;SDS011;29285;52.128;21.060;2024-02-28T13:45:40;53.80;;;34.90;;
43682;SDS011;29285;52.128;21.060;2024-02-28T13:50:46;50.00;;;30.60;;
43682;SDS011;29285;52.128;21.060;2024-02-28T13:55:48;47.70;;;30.60;;
43682;SDS011;29285;52.128;21.060;2024-02-28T14:00:49;45.30;;;30.10;;
43682;SDS011;29285;52.128;21.060;2024-02-28T14:05:50;42.40;;;28.40;;
43682;SDS011;29285;52.128;21.060;2024-02-28T14:10:52;40.90;;;28.00;;
43682;SDS011;29285;52.128;21.060;2024-02-28T14:15:54;41.10;;;26.90;;
43682;SDS011;29285;52.128;21.060;2024-02-28T14:20:55;38.90;;;25.40;;
43682;SDS011;29285;52.128;21.060;2024-02-28T14:25:56;32.50;;;21.70;;
43682;SDS011;29285;52.128;21.060;2024-02-28T14:30:57;31.90;;;21.00;;
43682;SDS011;29285;52.128;21.060;2024-02-28T14:35:58;28.20;;;19.80;;
43682;SDS011;29285;52.128;21.060;2024-02-28T14:41:00;29.40;;;20.20;;
43682;SDS011;29285;52.128;21.060;2024-02-28T14:46:03;29.70;;;19.60;;
43682;SDS011;29285;52.128;21.060;2024-02-28T14:51:04;29.50;;;18.90;;
43682;SDS011;29285;52.128;21.060;2024-02-28T14:56:07;27.30;;;18.50;;
43682;SDS011;29285;52.128;21.060;2024-02-28T15:01:07;27.30;;;18.40;;
43682;SDS011;29285;52.128;21.060;2024-02-28T15:06:10;26.70;;;16.60;;
43682;SDS011;29285;52.128;21.060;2024-02-28T15:11:11;25.30;;;18.00;;
43682;SDS011;29285;52.128;21.060;2024-02-28T15:16:12;23.90;;;15.80;;
43682;SDS011;29285;52.128;21.060;2024-02-28T15:21:14;20.50;;;13.00;;
43682;SDS011;29285;52.128;21.060;2024-02-28T15:26:15;21.40;;;13.00;;
43682;SDS011;29285;52.128;21.060;2024-02-28T15:31:16;18.40;;;11.70;;
43682;SDS011;29285;52.128;21.060;2024-02-28T15:36:17;20.20;;;12.60;;
43682;SDS011;29285;52.128;21.060;2024-02-28T15:41:18;18.30;;;11.90;;
43682;SDS011;29285;52.128;21.060;2024-02-28T15:46:19;16.50;;;10.80;;
43682;SDS011;29285;52.128;21.060;2024-02-28T15:51:20;18.00;;;10.90;;
43682;SDS011;29285;52.128;21.060;2024-02-28T15:56:21;16.70;;;10.20;;
43682;SDS011;29285;52.128;21.060;2024-02-28T16:01:22;18.90;;;12.40;;
43682;SDS011;29285;52.128;21.060;2024-02-28T16:06:23;21.90;;;12.90;;
43682;SDS011;29285;52.128;21.060;2024-02-28T16:11:25;20.80;;;14.10;;
43682;SDS011;29285;52.128;21.060;2024-02-28T16:16:27;17.70;;;12.70;;
43682;SDS011;29285;52.128;21.060;2024-02-28T16:21:28;18.80;;;13.70;;
43682;SDS011;29285;52.128;21.060;2024-02-28T16:26:29;23.40;;;13.70;;
43682;SDS011;29285;52.128;21.060;2024-02-28T16:31:30;22.00;;;13.10;;
43682;SDS011;29285;52.128;21.060;2024-02-28T16:36:31;22.10;;;14.50;;
43682;SDS011;29285;52.128;21.060;2024-02-28T16:41:32;18.20;;;12.50;;
43682;SDS011;29285;52.128;21.060;2024-02-28T16:46:34;22.20;;;14.50;;
43682;SDS011;29285;52.128;21.060;2024-02-28T16:51:35;21.20;;;13.90;;
43682;SDS011;29285;52.128;21.060;2024-02-28T16:56:36;22.30;;;12.80;;
43682;SDS011;29285;52.128;21.060;2024-02-28T17:01:37;20.70;;;13.90;;
43682;SDS011;29285;52.128;21.060;2024-02-28T17:06:38;22.00;;;13.40;;
43682;SDS011;29285;52.128;21.060;2024-02-28T17:11:39;19.40;;;13.90;;
43682;SDS011;29285;52.128;21.060;2024-02-28T17:16:40;20.40;;;14.70;;
43682;SDS011;29285;52.128;21.060;2024-02-28T17:21:41;24.00;;;15.80;;
43682;SDS011;29285;52.128;21.060;2024-02-28T17:26:42;23.90;;;14.60;;
43682;SDS011;29285;52.128;21.060;2024-02-28T17:31:43;24.70;;;15.70;;
43682;SDS011;29285;52.128;21.060;2024-02-28T17:36:45;26.60;;;16.50;;
43682;SDS011;29285;52.128;21.060;2024-02-28T17:41:46;21.90;;;16.30;;
43682;SDS011;29285;52.128;21.060;2024-02-28T17:46:48;24.90;;;16.70;;
43682;SDS011;29285;52.128;21.060;2024-02-28T17:51:49;25.70;;;18.00;;
43682;SDS011;29285;52.128;21.060;2024-02-28T17:56:50;28.20;;;19.60;;
43682;SDS011;29285;52.128;21.060;2024-02-28T18:01:51;23.70;;;16.10;;
43682;SDS011;29285;52.128;21.060;2024-02-28T18:06:52;28.20;;;17.70;;
43682;SDS011;29285;52.128;21.060;2024-02-28T18:11:53;23.60;;;16.30;;
43682;SDS011;29285;52.128;21.060;2024-02-28T18:16:55;27.10;;;18.90;;
43682;SDS011;29285;52.128;21.060;2024-02-28T18:21:56;26.00;;;17.00;;
43682;SDS011;29285;52.128;21.060;2024-02-28T18:26:57;25.90;;;17.80;;
43682;SDS011;29285;52.128;21.060;2024-02-28T18:31:58;24.20;;;17.50;;
43682;SDS011;29285;52.128;21.060;2024-02-28T18:36:59;25.20;;;17.30;;
43682;SDS011;29285;52.128;21.060;2024-02-28T18:42:01;23.00;;;17.40;;
43682;SDS011;29285;52.128;21.060;2024-02-28T18:47:02;21.00;;;15.00;;
43682;SDS011;29285;52.128;21.060;2024-02-28T18:52:03;20.90;;;15.30;;
43682;SDS011;29285;52.128;21.060;2024-02-28T18:57:04;21.50;;;14.80;;
43682;SDS011;29285;52.128;21.060;2024-02-28T19:02:05;20.10;;;14.90;;
43682;SDS011;29285;52.128;21.060;2024-02-28T19:07:06;20.10;;;14.20;;
43682;SDS011;29285;52.128;21.060;2024-02-28T19:12:08;19.70;;;15.70;;
43682;SDS011;29285;52.128;21.060;2024-02-28T19:17:09;20.00;;;14.90;;
43682;SDS011;29285;52.128;21.060;2024-02-28T19:22:09;22.80;;;17.10;;
43682;SDS011;29285;52.128;21.060;2024-02-28T19:27:10;20.00;;;15.00;;
43682;SDS011;29285;52.128;21.060;2024-02-28T19:32:12;19.60;;;14.50;;
43682;SDS011;29285;52.128;21.060;2024-02-28T19:37:13;19.30;;;14.20;;
43682;SDS011;29285;52.128;21.060;2024-02-28T20:50:54;16.50;;;12.60;;
43682;SDS011;29285;52.128;21.060;2024-02-28T20:55:55;15.40;;;12.20;;
43682;SDS011;29285;52.128;21.060;2024-02-28T21:00:56;15.50;;;12.20;;
43682;SDS011;29285;52.128;21.060;2024-02-28T21:05:59;16.80;;;12.60;;
43682;SDS011;29285;52.128;21.060;2024-02-28T21:11:00;16.90;;;13.10;;
43682;SDS011;29285;52.128;21.060;2024-02-28T21:16:01;16.70;;;13.00;;
43682;SDS011;29285;52.128;21.060;2024-02-28T21:21:02;17.90;;;13.40;;
43682;SDS011;29285;52.128;21.060;2024-02-28T21:26:05;18.00;;;13.90;;
43682;SDS011;29285;52.128;21.060;2024-02-28T21:31:06;18.70;;;14.30;;
43682;SDS011;29285;52.128;21.060;2024-02-28T21:36:07;20.60;;;14.60;;
43682;SDS011;29285;52.128;21.060;2024-02-28T21:41:09;20.90;;;15.30;;
43682;SDS011;29285;52.128;21.060;2024-02-28T21:46:11;18.30;;;14.80;;
43682;SDS011;29285;52.128;21.060;2024-02-28T21:51:12;20.70;;;14.20;;
43682;SDS011;29285;52.128;21.060;2024-02-28T21:56:13;24.50;;;16.10;;
43682;SDS011;29285;52.128;21.060;2024-02-28T22:01:14;20.70;;;15.20;;
43682;SDS011;29285;52.128;21.060;2024-02-28T22:06:15;21.60;;;16.10;;
43682;SDS011;29285;52.128;21.060;2024-02-28T22:11:16;24.20;;;15.90;;
43682;SDS011;29285;52.128;21.060;2024-02-28T22:16:17;21.50;;;15.10;;
43682;SDS011;29285;52.128;21.060;2024-02-28T22:21:18;24.40;;;17.40;;
43682;SDS011;29285;52.128;21.060;2024-02-28T22:26:20;25.00;;;16.60;;
43682;SDS011;29285;52.128;21.060;2024-02-28T22:31:22;24.50;;;16.50;;
43682;SDS011;29285;52.128;21.060;2024-02-28T22:36:23;22.50;;;16.20;;
43682;SDS011;29285;52.128;21.060;2024-02-28T22:41:24;22.10;;;16.30;;
43682;SDS011;29285;52.128;21.060;2024-02-28T22:46:25;21.70;;;15.80;;
43682;SDS011;29285;52.128;21.060;2024-02-28T22:51:26;21.70;;;14.70;;
43682;SDS011;29285;52.128;21.060;2024-02-28T22:56:27;22.80;;;16.00;;
43682;SDS011;29285;52.128;21.060;2024-02-28T23:01:28;22.80;;;15.30;;
